TAM62 SLLP-SKBO
Flight info
| Callsign | TAM62 |
|---|---|
| Flight time | 3h 2m |
| Altitude | 37000 |
| Route | ELAMU DCT BOKAP UL309 RCO/N0490F360 UL417 IREGA/N0485F380 UL417 PABON UP530 VVC DCT EGEPI EGEPI4W |
| Aircraft | B77W/H-SDE1E2E3FGHIJ2J3J4J5M1RWXY/LB1D1 |
Departure
| Time | 2026-04-24 20:33 |
|---|---|
| Airport | El Alto International Airport (SLLP) |
Arrival
| Time | 2026-04-24 23:35 |
|---|---|
| Airport | El Dorado International Airport (SKBO) |
| Time | Latitude | Longitude | Altitude | Speed | Heading |
|---|---|---|---|---|---|
| 2026-04-24 20:04 | -16.50955 | -68.17773 | 13341 ft | 0 kts | 37° |
| 2026-04-24 20:21 | -16.50976 | -68.17789 | 13339 ft | 4 kts | 46° |
| 2026-04-24 20:21 | -16.50986 | -68.17803 | 13338 ft | 4 kts | 68° |
| 2026-04-24 20:21 | -16.50992 | -68.17830 | 13337 ft | 4 kts | 90° |
| 2026-04-24 20:22 | -16.50992 | -68.17843 | 13338 ft | 0 kts | 92° |
| 2026-04-24 20:26 | -16.50992 | -68.17838 | 13340 ft | 2 kts | 92° |
| 2026-04-24 20:26 | -16.50993 | -68.17805 | 13341 ft | 7 kts | 92° |
| 2026-04-24 20:27 | -16.51001 | -68.17751 | 13340 ft | 8 kts | 109° |
| 2026-04-24 20:27 | -16.51025 | -68.17700 | 13340 ft | 8 kts | 118° |
| 2026-04-24 20:27 | -16.51052 | -68.17649 | 13340 ft | 8 kts | 121° |
| 2026-04-24 20:27 | -16.51086 | -68.17602 | 13339 ft | 8 kts | 129° |
| 2026-04-24 20:28 | -16.51123 | -68.17556 | 13337 ft | 8 kts | 130° |
| 2026-04-24 20:28 | -16.51161 | -68.17511 | 13338 ft | 8 kts | 130° |
| 2026-04-24 20:28 | -16.51198 | -68.17465 | 13338 ft | 8 kts | 130° |
| 2026-04-24 20:28 | -16.51235 | -68.17419 | 13337 ft | 8 kts | 130° |
| 2026-04-24 20:29 | -16.51262 | -68.17390 | 13333 ft | 9 kts | 140° |
| 2026-04-24 20:29 | -16.51346 | -68.17364 | 13331 ft | 7 kts | 179° |
| 2026-04-24 20:29 | -16.51384 | -68.17378 | 13334 ft | 6 kts | 239° |
| 2026-04-24 20:29 | -16.51388 | -68.17404 | 13332 ft | 0 kts | 268° |
| 2026-04-24 20:31 | -16.51385 | -68.17578 | 13328 ft | 56 kts | 272° |
| 2026-04-24 20:32 | -16.51366 | -68.18212 | 13315 ft | 118 kts | 272° |
| 2026-04-24 20:32 | -16.51333 | -68.19253 | 13283 ft | 171 kts | 272° |
| 2026-04-24 20:32 | -16.51282 | -68.20684 | 13186 ft | 215 kts | 273° |
| 2026-04-24 20:32 | -16.51181 | -68.22280 | 13325 ft | 225 kts | 272° |
| 2026-04-24 20:33 | -16.50969 | -68.23899 | 13724 ft | 228 kts | 291° |
| 2026-04-24 20:33 | -16.50106 | -68.25283 | 14176 ft | 228 kts | 311° |
| 2026-04-24 20:33 | -16.49102 | -68.26517 | 14706 ft | 223 kts | 310° |
| 2026-04-24 20:33 | -16.48112 | -68.27765 | 15096 ft | 228 kts | 309° |
| 2026-04-24 20:34 | -16.47084 | -68.29126 | 15186 ft | 250 kts | 308° |
| 2026-04-24 20:34 | -16.45968 | -68.30633 | 15313 ft | 274 kts | 308° |
| 2026-04-24 20:34 | -16.44748 | -68.32295 | 15383 ft | 303 kts | 308° |
| 2026-04-24 20:34 | -16.43421 | -68.34112 | 15547 ft | 327 kts | 307° |
| 2026-04-24 20:35 | -16.42005 | -68.36068 | 15735 ft | 351 kts | 307° |
| 2026-04-24 20:35 | -16.40487 | -68.38171 | 15861 ft | 376 kts | 307° |
| 2026-04-24 20:35 | -16.38867 | -68.40415 | 15970 ft | 399 kts | 307° |
| 2026-04-24 20:35 | -16.37164 | -68.42772 | 16290 ft | 414 kts | 307° |
| 2026-04-24 20:36 | -16.35414 | -68.45192 | 16661 ft | 422 kts | 307° |
| 2026-04-24 20:36 | -16.33640 | -68.47647 | 17307 ft | 427 kts | 306° |
| 2026-04-24 20:36 | -16.31846 | -68.50129 | 18090 ft | 430 kts | 306° |
| 2026-04-24 20:36 | -16.30041 | -68.52624 | 18735 ft | 434 kts | 306° |
| 2026-04-24 20:37 | -16.28219 | -68.55141 | 19367 ft | 437 kts | 307° |
| 2026-04-24 20:37 | -16.26129 | -68.57433 | 19713 ft | 442 kts | 323° |
| 2026-04-24 20:37 | -16.23410 | -68.58947 | 20211 ft | 447 kts | 343° |
| 2026-04-24 20:37 | -16.20423 | -68.59779 | 20772 ft | 446 kts | 347° |
| 2026-04-24 20:38 | -16.17397 | -68.60581 | 21366 ft | 450 kts | 346° |
| 2026-04-24 20:38 | -16.14360 | -68.61404 | 22005 ft | 453 kts | 346° |
| 2026-04-24 20:38 | -16.11304 | -68.62248 | 22641 ft | 455 kts | 346° |
| 2026-04-24 20:38 | -16.08268 | -68.63097 | 23233 ft | 458 kts | 346° |
| 2026-04-24 20:39 | -16.05180 | -68.63969 | 23811 ft | 461 kts | 346° |
| 2026-04-24 20:39 | -16.02078 | -68.64848 | 24251 ft | 465 kts | 346° |
| 2026-04-24 20:39 | -15.98989 | -68.65724 | 24680 ft | 468 kts | 346° |
| 2026-04-24 20:39 | -15.95827 | -68.66620 | 25113 ft | 472 kts | 346° |
| 2026-04-24 20:40 | -15.92652 | -68.67520 | 25557 ft | 475 kts | 346° |
| 2026-04-24 20:40 | -15.89456 | -68.68424 | 25963 ft | 479 kts | 346° |
| 2026-04-24 20:40 | -15.86225 | -68.69338 | 26365 ft | 482 kts | 346° |
| 2026-04-24 20:40 | -15.82981 | -68.70255 | 26809 ft | 485 kts | 346° |
| 2026-04-24 20:41 | -15.79713 | -68.71179 | 27198 ft | 488 kts | 346° |
| 2026-04-24 20:41 | -15.76422 | -68.72102 | 27577 ft | 489 kts | 347° |
| 2026-04-24 20:41 | -15.73056 | -68.72559 | 27812 ft | 491 kts | 2° |
| 2026-04-24 20:41 | -15.69682 | -68.72046 | 28108 ft | 492 kts | 19° |
| 2026-04-24 20:42 | -15.66536 | -68.70706 | 28422 ft | 490 kts | 25° |
| 2026-04-24 20:42 | -15.63393 | -68.69284 | 28695 ft | 495 kts | 24° |
| 2026-04-24 20:42 | -15.60223 | -68.67888 | 29071 ft | 497 kts | 24° |
| 2026-04-24 20:42 | -15.57060 | -68.66522 | 29401 ft | 499 kts | 24° |
| 2026-04-24 20:43 | -15.53842 | -68.65153 | 29687 ft | 501 kts | 24° |
| 2026-04-24 20:43 | -15.50565 | -68.63770 | 30046 ft | 503 kts | 24° |
| 2026-04-24 20:43 | -15.47327 | -68.62408 | 30405 ft | 502 kts | 24° |
| 2026-04-24 20:43 | -15.44136 | -68.61068 | 30833 ft | 500 kts | 24° |
| 2026-04-24 20:44 | -15.40875 | -68.59698 | 31284 ft | 498 kts | 24° |
| 2026-04-24 20:44 | -15.37715 | -68.58368 | 31693 ft | 496 kts | 24° |
| 2026-04-24 20:44 | -15.34529 | -68.57028 | 32170 ft | 493 kts | 24° |
| 2026-04-24 20:44 | -15.31360 | -68.55689 | 32582 ft | 492 kts | 24° |
| 2026-04-24 20:45 | -15.28198 | -68.54357 | 32984 ft | 490 kts | 24° |
| 2026-04-24 20:45 | -15.25038 | -68.53030 | 33376 ft | 490 kts | 24° |
| 2026-04-24 20:45 | -15.21877 | -68.51702 | 33773 ft | 489 kts | 24° |
| 2026-04-24 20:45 | -15.18726 | -68.50378 | 34182 ft | 488 kts | 24° |
| 2026-04-24 20:46 | -15.15590 | -68.49060 | 34571 ft | 486 kts | 23° |
| 2026-04-24 20:46 | -15.12468 | -68.47747 | 34930 ft | 484 kts | 23° |
| 2026-04-24 20:46 | -15.09347 | -68.46438 | 35280 ft | 483 kts | 23° |
| 2026-04-24 20:46 | -15.06240 | -68.45133 | 35604 ft | 482 kts | 23° |
| 2026-04-24 20:47 | -15.03137 | -68.43828 | 35948 ft | 481 kts | 23° |
| 2026-04-24 20:47 | -15.00030 | -68.42522 | 35965 ft | 484 kts | 23° |
| 2026-04-24 20:47 | -14.93815 | -68.39915 | 35980 ft | 481 kts | 23° |
| 2026-04-24 20:48 | -14.87631 | -68.37323 | 35988 ft | 479 kts | 22° |
| 2026-04-24 20:48 | -14.81448 | -68.34733 | 36002 ft | 479 kts | 23° |
| 2026-04-24 20:49 | -14.75263 | -68.32143 | 35994 ft | 480 kts | 22° |
| 2026-04-24 20:49 | -14.69071 | -68.29551 | 36001 ft | 480 kts | 23° |
| 2026-04-24 20:50 | -14.62867 | -68.26956 | 35994 ft | 481 kts | 22° |
| 2026-04-24 20:50 | -14.56658 | -68.24361 | 35998 ft | 482 kts | 22° |
| 2026-04-24 20:51 | -14.50445 | -68.21766 | 35993 ft | 482 kts | 22° |
| 2026-04-24 20:51 | -14.44227 | -68.19169 | 35970 ft | 482 kts | 22° |
| 2026-04-24 20:52 | -14.38048 | -68.16591 | 35960 ft | 482 kts | 22° |
| 2026-04-24 20:52 | -14.31834 | -68.13999 | 35959 ft | 482 kts | 22° |
| 2026-04-24 20:53 | -14.25520 | -68.11677 | 35933 ft | 483 kts | 9° |
| 2026-04-24 20:53 | -14.18836 | -68.11275 | 35951 ft | 482 kts | 2° |
| 2026-04-24 20:54 | -14.12122 | -68.11070 | 35932 ft | 484 kts | 3° |
| 2026-04-24 20:54 | -14.05388 | -68.10792 | 35930 ft | 485 kts | 3° |
| 2026-04-24 20:55 | -13.98658 | -68.10456 | 35928 ft | 485 kts | 4° |
| 2026-04-24 20:55 | -13.91915 | -68.10101 | 35928 ft | 486 kts | 4° |
| 2026-04-24 20:56 | -13.85161 | -68.09748 | 35917 ft | 486 kts | 4° |
| 2026-04-24 20:56 | -13.78406 | -68.09398 | 35918 ft | 486 kts | 4° |
| 2026-04-24 20:57 | -13.71659 | -68.09050 | 35911 ft | 485 kts | 4° |
| 2026-04-24 20:57 | -13.64918 | -68.08703 | 35911 ft | 485 kts | 4° |
| 2026-04-24 20:58 | -13.58224 | -68.08358 | 35900 ft | 485 kts | 4° |
| 2026-04-24 20:58 | -13.51487 | -68.08011 | 35896 ft | 485 kts | 4° |
| 2026-04-24 20:59 | -13.44752 | -68.07664 | 35899 ft | 484 kts | 4° |
| 2026-04-24 20:59 | -13.38021 | -68.07318 | 35901 ft | 485 kts | 4° |
| 2026-04-24 21:00 | -13.31235 | -68.06969 | 35907 ft | 489 kts | 4° |
| 2026-04-24 21:00 | -13.24412 | -68.06618 | 35910 ft | 493 kts | 4° |
| 2026-04-24 21:01 | -13.17526 | -68.06264 | 35908 ft | 497 kts | 4° |
| 2026-04-24 21:01 | -13.10592 | -68.05908 | 35902 ft | 500 kts | 4° |
| 2026-04-24 21:02 | -13.03650 | -68.05553 | 35890 ft | 499 kts | 4° |
| 2026-04-24 21:02 | -12.96745 | -68.05199 | 35896 ft | 497 kts | 4° |
| 2026-04-24 21:03 | -12.89859 | -68.04846 | 35895 ft | 494 kts | 4° |
| 2026-04-24 21:03 | -12.82992 | -68.04494 | 35893 ft | 493 kts | 4° |
| 2026-04-24 21:04 | -12.76149 | -68.04144 | 35897 ft | 493 kts | 4° |
| 2026-04-24 21:04 | -12.69292 | -68.03793 | 35900 ft | 493 kts | 4° |
| 2026-04-24 21:05 | -12.62433 | -68.03442 | 35899 ft | 494 kts | 4° |
| 2026-04-24 21:05 | -12.55557 | -68.03091 | 35900 ft | 495 kts | 4° |
| 2026-04-24 21:06 | -12.48663 | -68.02739 | 35899 ft | 497 kts | 4° |
| 2026-04-24 21:06 | -12.41738 | -68.02385 | 35901 ft | 499 kts | 4° |
| 2026-04-24 21:07 | -12.34806 | -68.02032 | 35900 ft | 500 kts | 4° |
| 2026-04-24 21:07 | -12.29024 | -68.01737 | 35900 ft | 500 kts | 4° |
| 2026-04-24 21:08 | -12.22074 | -68.01383 | 35896 ft | 500 kts | 4° |
| 2026-04-24 21:08 | -12.15131 | -68.01029 | 35902 ft | 499 kts | 4° |
| 2026-04-24 21:09 | -12.08200 | -68.00677 | 35890 ft | 498 kts | 4° |
| 2026-04-24 21:09 | -12.01297 | -68.00326 | 35899 ft | 496 kts | 3° |
| 2026-04-24 21:10 | -11.94431 | -67.99978 | 35899 ft | 495 kts | 4° |
| 2026-04-24 21:10 | -11.87558 | -67.99629 | 35898 ft | 495 kts | 4° |
| 2026-04-24 21:11 | -11.80686 | -67.99280 | 35901 ft | 495 kts | 4° |
| 2026-04-24 21:11 | -11.73800 | -67.98931 | 35904 ft | 496 kts | 4° |
| 2026-04-24 21:12 | -11.66901 | -67.98581 | 35902 ft | 497 kts | 4° |
| 2026-04-24 21:12 | -11.59993 | -67.98231 | 35907 ft | 497 kts | 4° |
| 2026-04-24 21:13 | -11.53070 | -67.97880 | 35900 ft | 498 kts | 4° |
| 2026-04-24 21:13 | -11.46149 | -67.97530 | 35909 ft | 498 kts | 4° |
| 2026-04-24 21:14 | -11.39279 | -67.97183 | 35905 ft | 497 kts | 4° |
| 2026-04-24 21:14 | -11.32375 | -67.96834 | 35906 ft | 497 kts | 4° |
| 2026-04-24 21:15 | -11.25471 | -67.96485 | 35908 ft | 496 kts | 4° |
| 2026-04-24 21:15 | -11.18578 | -67.96137 | 35911 ft | 496 kts | 4° |
| 2026-04-24 21:16 | -11.11698 | -67.95789 | 35910 ft | 495 kts | 4° |
| 2026-04-24 21:16 | -11.04814 | -67.95442 | 35903 ft | 495 kts | 4° |
| 2026-04-24 21:17 | -10.97955 | -67.95096 | 35908 ft | 494 kts | 4° |
| 2026-04-24 21:17 | -10.91081 | -67.94749 | 35907 ft | 495 kts | 3° |
| 2026-04-24 21:18 | -10.84202 | -67.94403 | 35905 ft | 495 kts | 4° |
| 2026-04-24 21:18 | -10.77321 | -67.94056 | 35909 ft | 495 kts | 4° |
| 2026-04-24 21:19 | -10.70434 | -67.93709 | 35908 ft | 496 kts | 4° |
| 2026-04-24 21:19 | -10.63541 | -67.93363 | 35907 ft | 496 kts | 4° |
| 2026-04-24 21:20 | -10.53190 | -67.92962 | 35909 ft | 496 kts | 3° |
| 2026-04-24 21:21 | -10.46287 | -67.92715 | 35902 ft | 497 kts | 3° |
| 2026-04-24 21:21 | -10.39364 | -67.92457 | 35913 ft | 498 kts | 3° |
| 2026-04-24 21:22 | -10.32432 | -67.92194 | 35910 ft | 499 kts | 3° |
| 2026-04-24 21:22 | -10.25477 | -67.91931 | 35908 ft | 500 kts | 3° |
| 2026-04-24 21:23 | -10.18516 | -67.91667 | 35907 ft | 501 kts | 3° |
| 2026-04-24 21:23 | -10.11555 | -67.91404 | 35913 ft | 501 kts | 3° |
| 2026-04-24 21:24 | -10.04582 | -67.91141 | 35910 ft | 501 kts | 3° |
| 2026-04-24 21:24 | -9.97680 | -67.90881 | 35914 ft | 501 kts | 3° |
| 2026-04-24 21:25 | -9.90719 | -67.90688 | 35908 ft | 501 kts | 359° |
| 2026-04-24 21:25 | -9.83802 | -67.91527 | 35907 ft | 502 kts | 348° |
| 2026-04-24 21:26 | -9.77063 | -67.93391 | 35916 ft | 502 kts | 345° |
| 2026-04-24 21:26 | -9.70361 | -67.95362 | 35909 ft | 502 kts | 345° |
| 2026-04-24 21:27 | -9.63637 | -67.97298 | 35908 ft | 502 kts | 345° |
| 2026-04-24 21:27 | -9.56914 | -67.99204 | 35907 ft | 502 kts | 345° |
| 2026-04-24 21:28 | -9.50180 | -68.01108 | 35902 ft | 502 kts | 345° |
| 2026-04-24 21:28 | -9.43448 | -68.03013 | 35911 ft | 502 kts | 346° |
| 2026-04-24 21:29 | -9.36719 | -68.04918 | 35906 ft | 502 kts | 346° |
| 2026-04-24 21:29 | -9.29990 | -68.06822 | 35907 ft | 502 kts | 346° |
| 2026-04-24 21:30 | -9.23260 | -68.08726 | 35905 ft | 502 kts | 346° |
| 2026-04-24 21:30 | -9.16551 | -68.10693 | 35906 ft | 502 kts | 345° |
| 2026-04-24 21:31 | -9.09864 | -68.12716 | 35909 ft | 502 kts | 345° |
| 2026-04-24 21:31 | -9.03170 | -68.14739 | 35907 ft | 502 kts | 345° |
| 2026-04-24 21:32 | -8.96489 | -68.16745 | 35911 ft | 501 kts | 345° |
| 2026-04-24 21:32 | -8.89800 | -68.18747 | 35910 ft | 501 kts | 345° |
| 2026-04-24 21:33 | -8.83155 | -68.20735 | 35908 ft | 502 kts | 345° |
| 2026-04-24 21:33 | -8.76461 | -68.22738 | 35911 ft | 502 kts | 345° |
| 2026-04-24 21:34 | -8.69771 | -68.24739 | 35907 ft | 502 kts | 345° |
| 2026-04-24 21:34 | -8.63077 | -68.26740 | 35907 ft | 502 kts | 345° |
| 2026-04-24 21:35 | -8.56383 | -68.28741 | 35909 ft | 502 kts | 345° |
| 2026-04-24 21:35 | -8.49687 | -68.30742 | 35910 ft | 502 kts | 345° |
| 2026-04-24 21:36 | -8.42994 | -68.32741 | 35912 ft | 502 kts | 345° |
| 2026-04-24 21:36 | -8.36295 | -68.34741 | 35910 ft | 502 kts | 345° |
| 2026-04-24 21:37 | -8.29584 | -68.36744 | 35906 ft | 503 kts | 345° |
| 2026-04-24 21:37 | -8.22889 | -68.38741 | 35995 ft | 499 kts | 345° |
| 2026-04-24 21:37 | -8.19570 | -68.39732 | 36111 ft | 497 kts | 345° |
| 2026-04-24 21:38 | -8.16259 | -68.40719 | 36229 ft | 496 kts | 345° |
| 2026-04-24 21:38 | -8.12956 | -68.41704 | 36347 ft | 495 kts | 345° |
| 2026-04-24 21:38 | -8.09650 | -68.42689 | 36468 ft | 495 kts | 345° |
| 2026-04-24 21:38 | -8.06348 | -68.43673 | 36591 ft | 495 kts | 345° |
| 2026-04-24 21:39 | -8.03049 | -68.44656 | 36706 ft | 495 kts | 345° |
| 2026-04-24 21:39 | -7.99761 | -68.45636 | 36840 ft | 495 kts | 345° |
| 2026-04-24 21:39 | -7.96456 | -68.46621 | 36957 ft | 496 kts | 345° |
| 2026-04-24 21:39 | -7.93142 | -68.47608 | 37086 ft | 497 kts | 345° |
| 2026-04-24 21:40 | -7.89820 | -68.48597 | 37215 ft | 498 kts | 345° |
| 2026-04-24 21:40 | -7.86497 | -68.49587 | 37331 ft | 499 kts | 345° |
| 2026-04-24 21:40 | -7.83166 | -68.50578 | 37463 ft | 500 kts | 345° |
| 2026-04-24 21:40 | -7.79825 | -68.51573 | 37594 ft | 500 kts | 345° |
| 2026-04-24 21:41 | -7.76488 | -68.52566 | 37717 ft | 501 kts | 345° |
| 2026-04-24 21:41 | -7.69776 | -68.54564 | 37872 ft | 504 kts | 345° |
| 2026-04-24 21:42 | -7.63065 | -68.56561 | 37887 ft | 501 kts | 345° |
| 2026-04-24 21:42 | -7.56391 | -68.58535 | 37891 ft | 498 kts | 345° |
| 2026-04-24 21:43 | -7.49753 | -68.60488 | 37899 ft | 496 kts | 345° |
| 2026-04-24 21:43 | -7.43129 | -68.62438 | 37903 ft | 495 kts | 345° |
| 2026-04-24 21:44 | -7.36557 | -68.64374 | 37906 ft | 495 kts | 345° |
| 2026-04-24 21:44 | -7.29937 | -68.66324 | 37907 ft | 496 kts | 345° |
| 2026-04-24 21:45 | -7.23312 | -68.68275 | 37904 ft | 497 kts | 345° |
| 2026-04-24 21:45 | -7.16667 | -68.70231 | 37891 ft | 498 kts | 345° |
| 2026-04-24 21:46 | -7.10025 | -68.72186 | 37890 ft | 498 kts | 345° |
| 2026-04-24 21:46 | -7.03358 | -68.74147 | 37903 ft | 499 kts | 345° |
| 2026-04-24 21:47 | -6.96700 | -68.76106 | 37896 ft | 500 kts | 345° |
| 2026-04-24 21:47 | -6.90007 | -68.78074 | 37906 ft | 501 kts | 345° |
| 2026-04-24 21:48 | -6.83311 | -68.80042 | 37889 ft | 502 kts | 345° |
| 2026-04-24 21:48 | -6.76605 | -68.82013 | 37888 ft | 502 kts | 345° |
| 2026-04-24 21:49 | -6.69897 | -68.83984 | 37887 ft | 502 kts | 345° |
| 2026-04-24 21:49 | -6.63192 | -68.85957 | 37902 ft | 502 kts | 345° |
| 2026-04-24 21:50 | -6.56515 | -68.87997 | 37893 ft | 501 kts | 344° |
| 2026-04-24 21:50 | -6.49836 | -68.90006 | 37898 ft | 501 kts | 345° |
| 2026-04-24 21:51 | -6.43156 | -68.91971 | 37900 ft | 500 kts | 345° |
| 2026-04-24 21:51 | -6.36481 | -68.93935 | 37894 ft | 500 kts | 345° |
| 2026-04-24 21:52 | -6.29813 | -68.95904 | 37884 ft | 499 kts | 345° |
| 2026-04-24 21:52 | -6.23194 | -68.97861 | 37891 ft | 499 kts | 345° |
| 2026-04-24 21:53 | -6.16539 | -68.99830 | 37903 ft | 499 kts | 345° |
| 2026-04-24 21:53 | -6.10107 | -69.01731 | 37901 ft | 498 kts | 345° |
| 2026-04-24 21:54 | -6.03456 | -69.03696 | 37888 ft | 499 kts | 345° |
| 2026-04-24 21:54 | -5.96801 | -69.05662 | 37903 ft | 500 kts | 345° |
| 2026-04-24 21:55 | -5.90118 | -69.07636 | 37882 ft | 501 kts | 345° |
| 2026-04-24 21:55 | -5.84505 | -69.09293 | 37890 ft | 502 kts | 345° |
| 2026-04-24 21:56 | -5.77827 | -69.11264 | 37880 ft | 503 kts | 345° |
| 2026-04-24 21:56 | -5.71105 | -69.13248 | 37887 ft | 504 kts | 345° |
| 2026-04-24 21:57 | -5.64374 | -69.15235 | 37880 ft | 505 kts | 345° |
| 2026-04-24 21:57 | -5.57634 | -69.17223 | 37880 ft | 505 kts | 346° |
| 2026-04-24 21:58 | -5.50899 | -69.19209 | 37884 ft | 505 kts | 346° |
| 2026-04-24 21:58 | -5.44146 | -69.21200 | 37875 ft | 506 kts | 345° |
| 2026-04-24 21:59 | -5.37390 | -69.23191 | 37878 ft | 506 kts | 345° |
| 2026-04-24 21:59 | -5.30629 | -69.25184 | 37880 ft | 507 kts | 346° |
| 2026-04-24 22:00 | -5.23853 | -69.27181 | 37881 ft | 507 kts | 346° |
| 2026-04-24 22:00 | -5.17077 | -69.29177 | 37879 ft | 508 kts | 346° |
| 2026-04-24 22:01 | -5.10301 | -69.31172 | 37880 ft | 508 kts | 346° |
| 2026-04-24 22:01 | -5.03568 | -69.33155 | 37879 ft | 507 kts | 346° |
| 2026-04-24 22:02 | -4.96806 | -69.35146 | 37874 ft | 508 kts | 346° |
| 2026-04-24 22:02 | -4.90030 | -69.37140 | 37880 ft | 508 kts | 346° |
| 2026-04-24 22:03 | -4.83247 | -69.39136 | 37879 ft | 508 kts | 346° |
| 2026-04-24 22:03 | -4.76461 | -69.41133 | 37878 ft | 508 kts | 346° |
| 2026-04-24 22:04 | -4.69676 | -69.43129 | 37877 ft | 508 kts | 346° |
| 2026-04-24 22:04 | -4.62889 | -69.45150 | 37877 ft | 509 kts | 346° |
| 2026-04-24 22:05 | -4.56109 | -69.47191 | 37880 ft | 509 kts | 346° |
| 2026-04-24 22:05 | -4.49317 | -69.49235 | 37881 ft | 510 kts | 346° |
| 2026-04-24 22:06 | -4.42521 | -69.51275 | 37881 ft | 510 kts | 346° |
| 2026-04-24 22:06 | -4.35714 | -69.53317 | 37874 ft | 510 kts | 346° |
| 2026-04-24 22:07 | -4.28913 | -69.55356 | 37881 ft | 511 kts | 346° |
| 2026-04-24 22:07 | -4.22103 | -69.57399 | 37878 ft | 511 kts | 346° |
| 2026-04-24 22:08 | -4.15333 | -69.59429 | 37877 ft | 511 kts | 346° |
| 2026-04-24 22:08 | -4.08516 | -69.61470 | 37871 ft | 511 kts | 346° |
| 2026-04-24 22:09 | -4.01704 | -69.63506 | 37873 ft | 511 kts | 346° |
| 2026-04-24 22:09 | -3.94907 | -69.65538 | 37874 ft | 511 kts | 346° |
| 2026-04-24 22:10 | -3.88097 | -69.67574 | 37877 ft | 511 kts | 346° |
| 2026-04-24 22:10 | -3.81287 | -69.69610 | 37875 ft | 510 kts | 346° |
| 2026-04-24 22:11 | -3.74475 | -69.71647 | 37873 ft | 510 kts | 346° |
| 2026-04-24 22:11 | -3.67674 | -69.73680 | 37876 ft | 510 kts | 346° |
| 2026-04-24 22:12 | -3.60873 | -69.75712 | 37872 ft | 510 kts | 346° |
| 2026-04-24 22:12 | -3.54071 | -69.77745 | 37871 ft | 509 kts | 346° |
| 2026-04-24 22:13 | -3.47286 | -69.79772 | 37867 ft | 508 kts | 346° |
| 2026-04-24 22:13 | -3.40513 | -69.81766 | 37871 ft | 507 kts | 346° |
| 2026-04-24 22:14 | -3.33750 | -69.83745 | 37871 ft | 506 kts | 346° |
| 2026-04-24 22:14 | -3.26998 | -69.85723 | 37870 ft | 505 kts | 346° |
| 2026-04-24 22:15 | -3.20247 | -69.87705 | 37865 ft | 506 kts | 346° |
| 2026-04-24 22:15 | -3.13477 | -69.89693 | 37866 ft | 508 kts | 346° |
| 2026-04-24 22:16 | -3.06695 | -69.91683 | 37872 ft | 509 kts | 346° |
| 2026-04-24 22:16 | -2.99954 | -69.93662 | 37873 ft | 510 kts | 346° |
| 2026-04-24 22:17 | -2.93142 | -69.95661 | 37874 ft | 510 kts | 346° |
| 2026-04-24 22:17 | -2.86326 | -69.97661 | 37869 ft | 511 kts | 346° |
| 2026-04-24 22:18 | -2.79513 | -69.99661 | 37866 ft | 510 kts | 346° |
| 2026-04-24 22:18 | -2.72988 | -70.01582 | 37870 ft | 509 kts | 345° |
| 2026-04-24 22:19 | -2.66401 | -70.04239 | 37894 ft | 511 kts | 337° |
| 2026-04-24 22:19 | -2.60005 | -70.07321 | 37869 ft | 511 kts | 336° |
| 2026-04-24 22:20 | -2.53615 | -70.10412 | 37875 ft | 510 kts | 336° |
| 2026-04-24 22:20 | -2.47213 | -70.13466 | 37873 ft | 510 kts | 337° |
| 2026-04-24 22:21 | -2.40798 | -70.16504 | 37885 ft | 510 kts | 337° |
| 2026-04-24 22:21 | -2.34384 | -70.19537 | 37874 ft | 510 kts | 337° |
| 2026-04-24 22:22 | -2.27970 | -70.22573 | 37869 ft | 510 kts | 336° |
| 2026-04-24 22:22 | -2.21558 | -70.25609 | 37873 ft | 510 kts | 336° |
| 2026-04-24 22:23 | -2.15139 | -70.28649 | 37866 ft | 510 kts | 337° |
| 2026-04-24 22:23 | -2.08727 | -70.31685 | 37873 ft | 510 kts | 337° |
| 2026-04-24 22:24 | -2.02317 | -70.34719 | 37888 ft | 510 kts | 337° |
| 2026-04-24 22:24 | -1.95932 | -70.37742 | 37872 ft | 510 kts | 337° |
| 2026-04-24 22:25 | -1.89521 | -70.40776 | 37869 ft | 510 kts | 337° |
| 2026-04-24 22:25 | -1.83156 | -70.43788 | 37887 ft | 509 kts | 337° |
| 2026-04-24 22:26 | -1.76707 | -70.46840 | 37885 ft | 509 kts | 337° |
| 2026-04-24 22:26 | -1.70303 | -70.49871 | 37874 ft | 509 kts | 337° |
| 2026-04-24 22:27 | -1.63916 | -70.52893 | 37865 ft | 508 kts | 337° |
| 2026-04-24 22:27 | -1.57527 | -70.55916 | 37867 ft | 508 kts | 337° |
| 2026-04-24 22:28 | -1.51189 | -70.58914 | 37876 ft | 508 kts | 337° |
| 2026-04-24 22:28 | -1.44798 | -70.61937 | 37886 ft | 508 kts | 337° |
| 2026-04-24 22:29 | -1.35219 | -70.66469 | 37879 ft | 508 kts | 337° |
| 2026-04-24 22:29 | -1.28832 | -70.69490 | 37870 ft | 508 kts | 337° |
| 2026-04-24 22:30 | -1.22450 | -70.72508 | 37886 ft | 508 kts | 337° |
| 2026-04-24 22:30 | -1.16066 | -70.75527 | 37880 ft | 507 kts | 337° |
| 2026-04-24 22:31 | -1.09684 | -70.78546 | 37867 ft | 507 kts | 337° |
| 2026-04-24 22:31 | -1.03307 | -70.81562 | 37867 ft | 506 kts | 336° |
| 2026-04-24 22:32 | -0.96968 | -70.84559 | 37877 ft | 505 kts | 336° |
| 2026-04-24 22:32 | -0.90624 | -70.87559 | 37878 ft | 504 kts | 336° |
| 2026-04-24 22:33 | -0.84284 | -70.90557 | 37881 ft | 503 kts | 336° |
| 2026-04-24 22:33 | -0.77956 | -70.93549 | 37871 ft | 503 kts | 336° |
| 2026-04-24 22:34 | -0.71637 | -70.96537 | 37864 ft | 502 kts | 336° |
| 2026-04-24 22:34 | -0.65323 | -70.99522 | 37881 ft | 503 kts | 336° |
| 2026-04-24 22:35 | -0.59204 | -71.02415 | 37886 ft | 503 kts | 336° |
| 2026-04-24 22:35 | -0.52870 | -71.05410 | 37872 ft | 504 kts | 336° |
| 2026-04-24 22:36 | -0.46527 | -71.08409 | 37869 ft | 504 kts | 336° |
| 2026-04-24 22:36 | -0.40180 | -71.11409 | 37869 ft | 505 kts | 336° |
| 2026-04-24 22:37 | -0.33827 | -71.14413 | 37883 ft | 505 kts | 336° |
| 2026-04-24 22:37 | -0.27469 | -71.17419 | 37886 ft | 505 kts | 336° |
| 2026-04-24 22:38 | -0.21117 | -71.20423 | 37867 ft | 505 kts | 336° |
| 2026-04-24 22:38 | -0.14762 | -71.23427 | 37877 ft | 505 kts | 336° |
| 2026-04-24 22:39 | -0.08451 | -71.26406 | 37891 ft | 505 kts | 336° |
| 2026-04-24 22:39 | -0.02094 | -71.29404 | 37868 ft | 505 kts | 336° |
| 2026-04-24 22:40 | 0.04221 | -71.32382 | 37886 ft | 504 kts | 336° |
| 2026-04-24 22:40 | 0.10569 | -71.35378 | 37875 ft | 504 kts | 336° |
| 2026-04-24 22:41 | 0.16905 | -71.38369 | 37870 ft | 504 kts | 336° |
| 2026-04-24 22:41 | 0.22212 | -71.40873 | 37877 ft | 503 kts | 336° |
| 2026-04-24 22:42 | 0.28504 | -71.43842 | 37865 ft | 503 kts | 336° |
| 2026-04-24 22:42 | 0.34838 | -71.46831 | 37877 ft | 503 kts | 336° |
| 2026-04-24 22:43 | 0.41178 | -71.49823 | 37884 ft | 504 kts | 336° |
| 2026-04-24 22:43 | 0.47524 | -71.52818 | 37881 ft | 505 kts | 336° |
| 2026-04-24 22:44 | 0.53888 | -71.55822 | 37889 ft | 506 kts | 336° |
| 2026-04-24 22:44 | 0.60261 | -71.58830 | 37883 ft | 507 kts | 336° |
| 2026-04-24 22:45 | 0.66630 | -71.61836 | 37878 ft | 507 kts | 336° |
| 2026-04-24 22:45 | 0.73007 | -71.64846 | 37879 ft | 506 kts | 336° |
| 2026-04-24 22:46 | 0.79374 | -71.67851 | 37887 ft | 506 kts | 336° |
| 2026-04-24 22:46 | 0.85748 | -71.70860 | 37877 ft | 507 kts | 336° |
| 2026-04-24 22:47 | 0.92129 | -71.73872 | 37878 ft | 507 kts | 336° |
| 2026-04-24 22:47 | 0.98510 | -71.76884 | 37868 ft | 508 kts | 336° |
| 2026-04-24 22:48 | 1.04841 | -71.79874 | 37879 ft | 508 kts | 336° |
| 2026-04-24 22:48 | 1.11228 | -71.82889 | 37868 ft | 508 kts | 336° |
| 2026-04-24 22:49 | 1.17626 | -71.85910 | 37885 ft | 509 kts | 336° |
| 2026-04-24 22:49 | 1.24038 | -71.88938 | 37879 ft | 510 kts | 336° |
| 2026-04-24 22:50 | 1.30458 | -71.91971 | 37882 ft | 511 kts | 336° |
| 2026-04-24 22:50 | 1.36851 | -71.95078 | 37867 ft | 512 kts | 332° |
| 2026-04-24 22:51 | 1.42997 | -71.98672 | 37868 ft | 512 kts | 330° |
| 2026-04-24 22:51 | 1.48895 | -72.02217 | 37874 ft | 513 kts | 330° |
| 2026-04-24 22:52 | 1.55021 | -72.05873 | 37890 ft | 513 kts | 330° |
| 2026-04-24 22:52 | 1.61172 | -72.09514 | 37885 ft | 514 kts | 330° |
| 2026-04-24 22:53 | 1.67324 | -72.13146 | 37873 ft | 514 kts | 330° |
| 2026-04-24 22:53 | 1.73477 | -72.16781 | 37883 ft | 514 kts | 330° |
| 2026-04-24 22:54 | 1.79629 | -72.20417 | 37889 ft | 514 kts | 330° |
| 2026-04-24 22:54 | 1.85790 | -72.24060 | 37888 ft | 514 kts | 330° |
| 2026-04-24 22:55 | 1.91951 | -72.27703 | 37889 ft | 515 kts | 330° |
| 2026-04-24 22:55 | 1.98117 | -72.31349 | 37866 ft | 515 kts | 330° |
| 2026-04-24 22:56 | 2.04265 | -72.34985 | 37876 ft | 515 kts | 330° |
| 2026-04-24 22:56 | 2.10397 | -72.38612 | 37889 ft | 515 kts | 330° |
| 2026-04-24 22:57 | 2.16608 | -72.42286 | 37871 ft | 515 kts | 330° |
| 2026-04-24 22:57 | 2.22739 | -72.45912 | 37859 ft | 516 kts | 330° |
| 2026-04-24 22:58 | 2.28925 | -72.49572 | 37869 ft | 517 kts | 330° |
| 2026-04-24 22:58 | 2.35126 | -72.53242 | 37857 ft | 519 kts | 330° |
| 2026-04-24 22:59 | 2.41337 | -72.56917 | 37855 ft | 520 kts | 330° |
| 2026-04-24 23:00 | 2.50681 | -72.62448 | 37865 ft | 520 kts | 330° |
| 2026-04-24 23:00 | 2.57033 | -72.65898 | 37865 ft | 518 kts | 335° |
| 2026-04-24 23:01 | 2.63532 | -72.69009 | 37859 ft | 517 kts | 336° |
| 2026-04-24 23:01 | 2.69986 | -72.72070 | 37845 ft | 517 kts | 335° |
| 2026-04-24 23:02 | 2.76472 | -72.75182 | 37858 ft | 516 kts | 335° |
| 2026-04-24 23:02 | 2.82940 | -72.78308 | 37863 ft | 516 kts | 335° |
| 2026-04-24 23:03 | 2.89400 | -72.81434 | 37857 ft | 516 kts | 335° |
| 2026-04-24 23:03 | 2.95867 | -72.84560 | 37869 ft | 516 kts | 335° |
| 2026-04-24 23:04 | 3.02312 | -72.87676 | 37874 ft | 515 kts | 335° |
| 2026-04-24 23:04 | 3.08769 | -72.90797 | 37869 ft | 515 kts | 335° |
| 2026-04-24 23:05 | 3.15222 | -72.93917 | 37867 ft | 515 kts | 335° |
| 2026-04-24 23:05 | 3.21675 | -72.97038 | 37763 ft | 518 kts | 335° |
| 2026-04-24 23:05 | 3.24933 | -72.98613 | 37491 ft | 519 kts | 335° |
| 2026-04-24 23:06 | 3.27989 | -73.00090 | 37252 ft | 517 kts | 335° |
| 2026-04-24 23:06 | 3.31198 | -73.01643 | 36989 ft | 512 kts | 335° |
| 2026-04-24 23:06 | 3.34387 | -73.03186 | 36733 ft | 508 kts | 335° |
| 2026-04-24 23:06 | 3.37556 | -73.04720 | 36489 ft | 505 kts | 335° |
| 2026-04-24 23:07 | 3.40714 | -73.06248 | 36237 ft | 502 kts | 335° |
| 2026-04-24 23:07 | 3.43843 | -73.07762 | 36076 ft | 498 kts | 335° |
| 2026-04-24 23:07 | 3.46955 | -73.09267 | 35951 ft | 496 kts | 335° |
| 2026-04-24 23:08 | 3.53166 | -73.12272 | 35742 ft | 503 kts | 335° |
| 2026-04-24 23:08 | 3.56320 | -73.13797 | 35627 ft | 504 kts | 335° |
| 2026-04-24 23:08 | 3.59474 | -73.15324 | 35514 ft | 503 kts | 335° |
| 2026-04-24 23:08 | 3.62619 | -73.16846 | 35391 ft | 502 kts | 336° |
| 2026-04-24 23:09 | 3.65765 | -73.18369 | 35276 ft | 501 kts | 335° |
| 2026-04-24 23:09 | 3.68900 | -73.19888 | 35151 ft | 501 kts | 335° |
| 2026-04-24 23:09 | 3.72034 | -73.21405 | 35036 ft | 500 kts | 335° |
| 2026-04-24 23:09 | 3.75161 | -73.22919 | 34919 ft | 499 kts | 335° |
| 2026-04-24 23:10 | 3.78288 | -73.24434 | 34815 ft | 498 kts | 335° |
| 2026-04-24 23:10 | 3.81399 | -73.25941 | 34695 ft | 497 kts | 335° |
| 2026-04-24 23:10 | 3.84504 | -73.27444 | 34577 ft | 496 kts | 335° |
| 2026-04-24 23:10 | 3.87612 | -73.28950 | 34464 ft | 495 kts | 335° |
| 2026-04-24 23:11 | 3.90701 | -73.30446 | 34345 ft | 493 kts | 335° |
| 2026-04-24 23:11 | 3.93786 | -73.31941 | 34241 ft | 492 kts | 335° |
| 2026-04-24 23:11 | 3.96862 | -73.33432 | 34127 ft | 491 kts | 335° |
| 2026-04-24 23:11 | 3.99935 | -73.34921 | 34017 ft | 490 kts | 335° |
| 2026-04-24 23:12 | 4.02961 | -73.36456 | 33895 ft | 489 kts | 330° |
| 2026-04-24 23:12 | 4.05724 | -73.38442 | 33768 ft | 489 kts | 319° |
| 2026-04-24 23:12 | 4.08132 | -73.40841 | 33648 ft | 488 kts | 310° |
| 2026-04-24 23:12 | 4.10135 | -73.43573 | 33533 ft | 487 kts | 300° |
| 2026-04-24 23:13 | 4.11861 | -73.46490 | 33419 ft | 486 kts | 299° |
| 2026-04-24 23:13 | 4.13550 | -73.49423 | 33287 ft | 486 kts | 299° |
| 2026-04-24 23:13 | 4.15245 | -73.52347 | 33178 ft | 485 kts | 300° |
| 2026-04-24 23:13 | 4.16962 | -73.55258 | 33047 ft | 485 kts | 300° |
| 2026-04-24 23:14 | 4.18693 | -73.58150 | 32920 ft | 484 kts | 300° |
| 2026-04-24 23:14 | 4.20437 | -73.61044 | 32717 ft | 486 kts | 300° |
| 2026-04-24 23:14 | 4.22185 | -73.63946 | 32507 ft | 487 kts | 300° |
| 2026-04-24 23:14 | 4.23959 | -73.66798 | 32204 ft | 484 kts | 304° |
| 2026-04-24 23:15 | 4.26168 | -73.69355 | 31386 ft | 496 kts | 317° |
| 2026-04-24 23:15 | 4.28754 | -73.71690 | 30787 ft | 507 kts | 319° |
| 2026-04-24 23:15 | 4.31442 | -73.74014 | 30143 ft | 511 kts | 320° |
| 2026-04-24 23:15 | 4.34115 | -73.76339 | 29595 ft | 504 kts | 319° |
| 2026-04-24 23:16 | 4.36680 | -73.78622 | 29609 ft | 485 kts | 318° |
| 2026-04-24 23:16 | 4.39137 | -73.80856 | 29618 ft | 469 kts | 318° |
| 2026-04-24 23:16 | 4.41493 | -73.83027 | 29665 ft | 453 kts | 317° |
| 2026-04-24 23:17 | 4.46112 | -73.87311 | 29692 ft | 448 kts | 317° |
| 2026-04-24 23:17 | 4.50669 | -73.91532 | 29699 ft | 450 kts | 317° |
| 2026-04-24 23:18 | 4.55280 | -73.95797 | 29540 ft | 448 kts | 317° |
| 2026-04-24 23:18 | 4.57559 | -73.97905 | 29165 ft | 443 kts | 317° |
| 2026-04-24 23:18 | 4.59715 | -74.00037 | 28667 ft | 441 kts | 308° |
| 2026-04-24 23:18 | 4.61197 | -74.02493 | 28382 ft | 444 kts | 290° |
| 2026-04-24 23:19 | 4.62132 | -74.05427 | 28335 ft | 440 kts | 285° |
| 2026-04-24 23:19 | 4.63918 | -74.11251 | 28342 ft | 434 kts | 287° |
| 2026-04-24 23:19 | 4.64853 | -74.14119 | 28164 ft | 435 kts | 287° |
| 2026-04-24 23:20 | 4.65807 | -74.17028 | 27362 ft | 442 kts | 288° |
| 2026-04-24 23:20 | 4.66774 | -74.19975 | 26510 ft | 448 kts | 288° |
| 2026-04-24 23:20 | 4.67741 | -74.22933 | 25826 ft | 439 kts | 288° |
| 2026-04-24 23:20 | 4.68671 | -74.25781 | 25055 ft | 420 kts | 288° |
| 2026-04-24 23:21 | 4.69561 | -74.28511 | 24290 ft | 405 kts | 288° |
| 2026-04-24 23:21 | 4.70421 | -74.31148 | 23484 ft | 391 kts | 288° |
| 2026-04-24 23:21 | 4.71254 | -74.33704 | 22614 ft | 379 kts | 288° |
| 2026-04-24 23:21 | 4.72061 | -74.36178 | 21714 ft | 368 kts | 288° |
| 2026-04-24 23:22 | 4.72847 | -74.38589 | 20843 ft | 360 kts | 288° |
| 2026-04-24 23:22 | 4.73669 | -74.40927 | 19994 ft | 351 kts | 292° |
| 2026-04-24 23:22 | 4.74571 | -74.43172 | 19183 ft | 344 kts | 292° |
| 2026-04-24 23:22 | 4.75451 | -74.45380 | 18353 ft | 340 kts | 291° |
| 2026-04-24 23:23 | 4.76320 | -74.47560 | 17480 ft | 334 kts | 291° |
| 2026-04-24 23:23 | 4.77174 | -74.49707 | 16601 ft | 328 kts | 291° |
| 2026-04-24 23:23 | 4.78017 | -74.51809 | 15724 ft | 321 kts | 293° |
| 2026-04-24 23:23 | 4.79286 | -74.53565 | 15191 ft | 307 kts | 322° |
| 2026-04-24 23:24 | 4.81159 | -74.54530 | 15043 ft | 304 kts | 343° |
| 2026-04-24 23:24 | 4.83322 | -74.54841 | 14934 ft | 322 kts | 358° |
| 2026-04-24 23:24 | 4.85559 | -74.54610 | 14829 ft | 324 kts | 17° |
| 2026-04-24 23:24 | 4.87449 | -74.53453 | 14835 ft | 322 kts | 47° |
| 2026-04-24 23:25 | 4.88498 | -74.51519 | 14848 ft | 324 kts | 77° |
| 2026-04-24 23:25 | 4.88830 | -74.49284 | 14896 ft | 325 kts | 80° |
| 2026-04-24 23:25 | 4.89328 | -74.47073 | 14881 ft | 322 kts | 73° |
| 2026-04-24 23:25 | 4.89875 | -74.44949 | 14863 ft | 308 kts | 84° |
| 2026-04-24 23:26 | 4.89689 | -74.42831 | 14888 ft | 306 kts | 108° |
| 2026-04-24 23:26 | 4.88755 | -74.40919 | 14775 ft | 308 kts | 127° |
| 2026-04-24 23:26 | 4.87253 | -74.39426 | 14532 ft | 302 kts | 150° |
| 2026-04-24 23:26 | 4.85420 | -74.38445 | 14357 ft | 295 kts | 154° |
| 2026-04-24 23:27 | 4.83591 | -74.37543 | 14163 ft | 290 kts | 154° |
| 2026-04-24 23:27 | 4.81795 | -74.36644 | 13958 ft | 287 kts | 154° |
| 2026-04-24 23:27 | 4.80022 | -74.35740 | 13766 ft | 284 kts | 154° |
| 2026-04-24 23:27 | 4.78286 | -74.34847 | 13578 ft | 277 kts | 153° |
| 2026-04-24 23:28 | 4.76598 | -74.33975 | 13528 ft | 272 kts | 154° |
| 2026-04-24 23:28 | 4.74905 | -74.33101 | 13487 ft | 274 kts | 154° |
| 2026-04-24 23:28 | 4.73214 | -74.32226 | 13489 ft | 273 kts | 154° |
| 2026-04-24 23:28 | 4.71535 | -74.31359 | 13458 ft | 266 kts | 154° |
| 2026-04-24 23:29 | 4.69959 | -74.30505 | 13456 ft | 250 kts | 148° |
| 2026-04-24 23:29 | 4.68634 | -74.29438 | 13523 ft | 245 kts | 134° |
| 2026-04-24 23:29 | 4.67546 | -74.28103 | 13445 ft | 247 kts | 128° |
| 2026-04-24 23:29 | 4.66484 | -74.26749 | 13317 ft | 246 kts | 129° |
| 2026-04-24 23:30 | 4.65426 | -74.25422 | 13198 ft | 243 kts | 129° |
| 2026-04-24 23:30 | 4.64369 | -74.24102 | 13088 ft | 242 kts | 129° |
| 2026-04-24 23:30 | 4.63678 | -74.23243 | 12993 ft | 237 kts | 130° |
| 2026-04-24 23:30 | 4.62688 | -74.21927 | 12715 ft | 236 kts | 123° |
| 2026-04-24 23:31 | 4.61949 | -74.20477 | 12432 ft | 232 kts | 110° |
| 2026-04-24 23:31 | 4.61523 | -74.18931 | 12138 ft | 230 kts | 101° |
| 2026-04-24 23:31 | 4.61194 | -74.17374 | 11841 ft | 226 kts | 102° |
| 2026-04-24 23:31 | 4.60857 | -74.15865 | 11533 ft | 217 kts | 103° |
| 2026-04-24 23:32 | 4.60538 | -74.14452 | 11284 ft | 201 kts | 103° |
| 2026-04-24 23:32 | 4.60274 | -74.13122 | 11024 ft | 192 kts | 96° |
| 2026-04-24 23:32 | 4.60335 | -74.11813 | 10775 ft | 188 kts | 76° |
| 2026-04-24 23:32 | 4.60808 | -74.10594 | 10543 ft | 189 kts | 58° |
| 2026-04-24 23:33 | 4.61645 | -74.09581 | 10286 ft | 189 kts | 39° |
| 2026-04-24 23:33 | 4.62744 | -74.08896 | 10009 ft | 185 kts | 22° |
| 2026-04-24 23:33 | 4.63965 | -74.08531 | 9741 ft | 181 kts | 5° |
| 2026-04-24 23:33 | 4.65166 | -74.08633 | 9499 ft | 167 kts | 343° |
| 2026-04-24 23:34 | 4.66202 | -74.09083 | 9295 ft | 162 kts | 331° |
| 2026-04-24 23:34 | 4.67144 | -74.09722 | 9098 ft | 165 kts | 315° |
| 2026-04-24 23:34 | 4.67857 | -74.10591 | 8900 ft | 157 kts | 303° |
| 2026-04-24 23:34 | 4.68498 | -74.11461 | 8702 ft | 159 kts | 305° |
| 2026-04-24 23:35 | 4.69180 | -74.12362 | 8456 ft | 161 kts | 305° |
| 2026-04-24 23:35 | 4.69825 | -74.13217 | 8369 ft | 140 kts | 308° |
| 2026-04-24 23:35 | 4.70309 | -74.13849 | 8373 ft | 92 kts | 307° |
| 2026-04-24 23:35 | 4.70599 | -74.14233 | 8370 ft | 45 kts | 307° |
| 2026-04-24 23:36 | 4.70710 | -74.14380 | 8372 ft | 12 kts | 307° |
| 2026-04-24 23:36 | 4.70759 | -74.14445 | 8373 ft | 13 kts | 307° |
| 2026-04-24 23:36 | 4.70833 | -74.14542 | 8372 ft | 25 kts | 307° |
| 2026-04-24 23:36 | 4.70942 | -74.14684 | 8371 ft | 26 kts | 307° |
| 2026-04-24 23:37 | 4.71050 | -74.14827 | 8373 ft | 26 kts | 307° |
| 2026-04-24 23:37 | 4.71158 | -74.14971 | 8373 ft | 26 kts | 307° |
| 2026-04-24 23:37 | 4.71309 | -74.15179 | 8372 ft | 10 kts | 282° |
| 2026-04-24 23:38 | 4.71282 | -74.15244 | 8371 ft | 10 kts | 232° |
| 2026-04-24 23:38 | 4.71259 | -74.15272 | 8372 ft | 4 kts | 227° |
| 2026-04-24 23:38 | 4.71237 | -74.15288 | 8373 ft | 4 kts | 212° |
| 2026-04-24 23:38 | 4.71217 | -74.15296 | 8374 ft | 1 kts | 194° |
| 2026-04-24 23:39 | 4.71214 | -74.15296 | 8374 ft | 0 kts | 192° |
| 2026-04-24 23:39 | 4.71193 | -74.15297 | 8375 ft | 8 kts | 178° |
| 2026-04-24 23:39 | 4.71140 | -74.15270 | 8371 ft | 9 kts | 135° |
| 2026-04-24 23:40 | 4.71101 | -74.15222 | 8371 ft | 9 kts | 128° |
| 2026-04-24 23:40 | 4.71064 | -74.15172 | 8371 ft | 9 kts | 127° |
| 2026-04-24 23:40 | 4.71027 | -74.15123 | 8372 ft | 9 kts | 127° |
| 2026-04-24 23:40 | 4.70990 | -74.15074 | 8371 ft | 9 kts | 127° |
| 2026-04-24 23:41 | 4.70952 | -74.15024 | 8372 ft | 9 kts | 128° |
| 2026-04-24 23:41 | 4.70911 | -74.14971 | 8371 ft | 10 kts | 128° |
| 2026-04-24 23:41 | 4.70867 | -74.14912 | 8374 ft | 11 kts | 127° |
| 2026-04-24 23:41 | 4.70818 | -74.14847 | 8372 ft | 12 kts | 127° |
| 2026-04-24 23:42 | 4.70765 | -74.14776 | 8372 ft | 13 kts | 127° |
| 2026-04-24 23:42 | 4.70709 | -74.14702 | 8371 ft | 14 kts | 127° |
| 2026-04-24 23:42 | 4.70651 | -74.14626 | 8375 ft | 14 kts | 127° |
| 2026-04-24 23:42 | 4.70595 | -74.14551 | 8373 ft | 13 kts | 127° |
| 2026-04-24 23:43 | 4.70538 | -74.14476 | 8373 ft | 13 kts | 127° |
| 2026-04-24 23:43 | 4.70481 | -74.14401 | 8373 ft | 13 kts | 127° |
| 2026-04-24 23:43 | 4.70424 | -74.14326 | 8371 ft | 13 kts | 127° |
| 2026-04-24 23:43 | 4.70368 | -74.14251 | 8372 ft | 13 kts | 127° |
| 2026-04-24 23:44 | 4.70311 | -74.14177 | 8370 ft | 13 kts | 127° |
| 2026-04-24 23:44 | 4.70254 | -74.14101 | 8370 ft | 13 kts | 127° |
| 2026-04-24 23:44 | 4.70198 | -74.14028 | 8372 ft | 13 kts | 127° |
| 2026-04-24 23:44 | 4.70185 | -74.14010 | 8371 ft | 0 kts | 127° |
| 2026-04-24 23:45 | 4.70184 | -74.14009 | 8371 ft | 1 kts | 127° |
| 2026-04-24 23:45 | 4.70171 | -74.13992 | 8373 ft | 5 kts | 127° |
| 2026-04-24 23:45 | 4.70140 | -74.13986 | 8371 ft | 5 kts | 197° |
| 2026-04-24 23:45 | 4.70108 | -74.14002 | 8369 ft | 5 kts | 213° |
| 2026-04-24 23:46 | 4.70079 | -74.14024 | 8372 ft | 5 kts | 218° |
| 2026-04-24 23:46 | 4.70045 | -74.14031 | 8373 ft | 5 kts | 171° |
| 2026-04-24 23:46 | 4.70014 | -74.14013 | 8371 ft | 5 kts | 140° |
| 2026-04-24 23:46 | 4.69992 | -74.13987 | 8372 ft | 5 kts | 132° |
| 2026-04-24 23:47 | 4.69959 | -74.13986 | 8373 ft | 5 kts | 197° |
| 2026-04-24 23:47 | 4.69929 | -74.14002 | 8371 ft | 5 kts | 211° |
| 2026-04-24 23:47 | 4.69915 | -74.14011 | 8372 ft | 2 kts | 213° |
| 2026-04-24 23:47 | 4.69909 | -74.14014 | 8372 ft | 0 kts | 213° |